createdAt,value
2018-05-06T00:02:27.768Z,9.36
2018-05-06T00:05:33.948Z,9.31
2018-05-06T00:08:40.037Z,9.29
2018-05-06T00:11:46.217Z,9.24
2018-05-06T00:14:52.107Z,9.20
2018-05-06T00:17:58.029Z,9.17
2018-05-06T00:21:04.098Z,9.11
2018-05-06T00:24:09.088Z,9.11
2018-05-06T00:27:16.065Z,9.08
2018-05-06T00:30:22.470Z,9.07
2018-05-06T00:33:27.743Z,9.01
2018-05-06T00:36:33.023Z,8.98
2018-05-06T00:39:39.137Z,8.94
2018-05-06T00:42:45.091Z,8.92
2018-05-06T00:45:50.354Z,8.88
2018-05-06T00:48:55.624Z,8.86
2018-05-06T00:52:00.886Z,8.83
2018-05-06T00:55:06.596Z,8.80
2018-05-06T00:58:12.454Z,8.78
2018-05-06T01:01:19.541Z,8.72
2018-05-06T01:04:25.333Z,8.69
2018-05-06T01:07:30.534Z,8.65
2018-05-06T01:10:37.468Z,8.61
2018-05-06T01:13:43.265Z,8.59
2018-05-06T01:16:49.147Z,8.56
2018-05-06T01:19:54.410Z,8.51
2018-05-06T01:22:59.666Z,8.52
2018-05-06T01:26:05.626Z,8.47
2018-05-06T01:29:11.493Z,8.46
2018-05-06T01:32:18.408Z,8.40
2018-05-06T01:35:23.673Z,8.37
2018-05-06T01:38:30.727Z,8.32
2018-05-06T01:41:37.470Z,8.27
2018-05-06T01:44:43.776Z,8.28
2018-05-06T01:47:49.680Z,8.27
2018-05-06T01:50:54.881Z,8.19
2018-05-06T01:54:00.521Z,8.20
2018-05-06T01:57:05.381Z,8.15
2018-05-06T02:00:11.521Z,8.15
2018-05-06T02:03:18.548Z,8.08
2018-05-06T02:06:25.078Z,8.06
2018-05-06T02:09:31.716Z,8.05
2018-05-06T02:12:37.561Z,8.02
2018-05-06T02:15:43.656Z,7.97
2018-05-06T02:18:49.758Z,7.94
2018-05-06T02:21:57.067Z,7.90
2018-05-06T02:25:02.931Z,7.87
2018-05-06T02:28:09.941Z,7.83
2018-05-06T02:31:16.154Z,7.78
2018-05-06T02:34:21.107Z,7.77
2018-05-06T02:37:27.009Z,7.76
2018-05-06T02:40:32.937Z,7.76
2018-05-06T02:43:39.530Z,7.73
2018-05-06T02:46:45.642Z,7.65
2018-05-06T02:49:51.832Z,7.63
2018-05-06T02:52:57.644Z,7.57
2018-05-06T02:56:03.748Z,7.57
2018-05-06T02:59:09.379Z,7.52
2018-05-06T03:02:16.148Z,7.51
2018-05-06T03:05:21.343Z,7.50
2018-05-06T03:08:27.152Z,7.46
2018-05-06T03:11:32.846Z,7.45
2018-05-06T03:14:38.520Z,7.41
2018-05-06T03:17:43.628Z,7.42
2018-05-06T03:20:49.236Z,7.41
2018-05-06T03:23:55.149Z,7.38
2018-05-06T03:27:00.361Z,7.37
2018-05-06T03:30:05.224Z,7.36
2018-05-06T03:33:10.844Z,7.29
2018-05-06T03:36:16.651Z,7.31
2018-05-06T03:45:30.584Z,7.19
2018-05-06T03:48:36.675Z,7.18
2018-05-06T03:51:44.393Z,7.16
2018-05-06T03:54:50.001Z,7.15
2018-05-06T03:58:06.152Z,7.14
2018-05-06T04:01:11.420Z,7.10
2018-05-06T04:04:16.332Z,7.10
2018-05-06T04:07:22.041Z,7.10
2018-05-06T04:10:27.959Z,7.07
2018-05-06T04:13:33.183Z,7.08
2018-05-06T04:16:39.365Z,7.03
2018-05-06T04:19:44.219Z,7.03
2018-05-06T04:22:50.316Z,7.02
2018-05-06T04:25:55.932Z,7.00
2018-05-06T04:29:02.972Z,7.00
2018-05-06T04:32:09.081Z,7.04
2018-05-06T04:35:15.203Z,6.98
2018-05-06T04:38:20.847Z,6.91
2018-05-06T04:41:26.045Z,6.88
2018-05-06T04:44:31.439Z,6.91
2018-05-06T04:47:36.633Z,6.87
2018-05-06T04:50:42.737Z,6.92
2018-05-06T04:53:48.751Z,6.93
2018-05-06T04:56:54.085Z,6.96
2018-05-06T04:59:59.278Z,6.97
2018-05-06T05:03:05.097Z,7.05
2018-05-06T05:06:10.725Z,7.05
2018-05-06T05:09:16.813Z,7.12
2018-05-06T05:12:22.420Z,7.21
2018-05-06T05:15:28.632Z,7.33
2018-05-06T05:18:34.510Z,7.39
2018-05-06T05:21:39.699Z,7.48
2018-05-06T05:24:45.028Z,7.56
2018-05-06T05:27:50.768Z,7.60
2018-05-06T05:30:56.886Z,7.67
2018-05-06T05:34:03.088Z,7.72
2018-05-06T05:37:08.900Z,7.79
2018-05-06T05:40:14.101Z,7.86
2018-05-06T05:43:19.284Z,7.93
2018-05-06T05:46:25.591Z,8.00
2018-05-06T05:49:31.917Z,8.10
2018-05-06T05:52:37.104Z,8.15
2018-05-06T05:55:42.770Z,8.23
2018-05-06T05:58:49.612Z,8.30
2018-05-06T06:01:55.503Z,8.39
2018-05-06T06:05:01.597Z,8.48
2018-05-06T06:08:08.632Z,8.57
2018-05-06T06:11:14.431Z,8.67
2018-05-06T06:14:19.629Z,8.76
2018-05-06T06:17:25.944Z,8.85
2018-05-06T06:20:30.901Z,8.95
2018-05-06T06:23:37.022Z,9.05
2018-05-06T06:26:42.213Z,9.13
2018-05-06T06:29:47.962Z,9.24
2018-05-06T06:32:53.412Z,9.34
2018-05-06T06:35:58.770Z,9.44
2018-05-06T06:39:03.575Z,9.54
2018-05-06T06:42:09.532Z,9.64
2018-05-06T06:45:15.640Z,9.75
2018-05-06T06:48:21.748Z,9.85
2018-05-06T06:51:26.943Z,9.95
2018-05-06T06:54:32.553Z,10.04
2018-05-06T06:57:40.321Z,10.14
2018-05-06T07:00:47.079Z,10.24
2018-05-06T07:03:53.203Z,10.35
2018-05-06T07:06:59.179Z,10.46
2018-05-06T07:10:04.376Z,10.56
2018-05-06T07:13:10.486Z,10.68
2018-05-06T07:16:15.696Z,10.79
2018-05-06T07:19:21.361Z,10.90
2018-05-06T07:22:27.553Z,11.01
2018-05-06T07:25:32.957Z,11.12
2018-05-06T07:28:39.840Z,11.24
2018-05-06T07:31:45.864Z,11.36
2018-05-06T07:34:51.972Z,11.46
2018-05-06T07:37:57.596Z,11.60
2018-05-06T07:41:02.796Z,11.72
2018-05-06T07:44:08.541Z,11.85
2018-05-06T07:47:14.852Z,11.99
2018-05-06T07:50:20.527Z,12.12
2018-05-06T07:53:27.554Z,12.25
2018-05-06T07:56:33.156Z,12.38
2018-05-06T07:59:39.272Z,12.50
2018-05-06T08:02:45.561Z,12.65
2018-05-06T08:05:51.369Z,12.78
2018-05-06T08:08:56.567Z,12.94
2018-05-06T08:12:02.777Z,13.08
2018-05-06T08:15:08.604Z,13.23
2018-05-06T08:18:13.896Z,13.38
2018-05-06T08:21:20.225Z,13.52
2018-05-06T08:24:26.536Z,13.67
2018-05-06T08:27:32.640Z,13.82
2018-05-06T08:30:37.873Z,13.97
2018-05-06T08:33:43.061Z,14.12
2018-05-06T08:36:48.294Z,14.29
2018-05-06T08:39:53.510Z,14.43
2018-05-06T08:42:59.832Z,14.59
2018-05-06T08:46:05.441Z,14.74
2018-05-06T08:49:11.459Z,14.88
2018-05-06T08:52:16.654Z,15.02
2018-05-06T08:55:22.424Z,15.18
2018-05-06T08:58:27.399Z,15.33
2018-05-06T09:01:32.608Z,15.47
2018-05-06T09:04:39.020Z,15.60
2018-05-06T09:07:44.659Z,15.75
2018-05-06T09:10:50.847Z,15.89
2018-05-06T09:13:56.965Z,16.04
2018-05-06T09:17:02.208Z,16.16
2018-05-06T09:20:07.415Z,16.28
2018-05-06T09:23:12.609Z,16.44
2018-05-06T09:26:17.813Z,16.59
2018-05-06T09:29:23.012Z,16.71
2018-05-06T09:32:29.138Z,16.82
2018-05-06T09:35:35.148Z,16.96
2018-05-06T09:38:40.357Z,17.11
2018-05-06T09:41:45.560Z,17.28
2018-05-06T09:44:50.768Z,17.40
2018-05-06T09:47:57.379Z,17.48
2018-05-06T09:51:03.298Z,17.61
2018-05-06T09:54:10.152Z,17.73
2018-05-06T09:57:16.009Z,17.87
2018-05-06T10:00:22.108Z,17.93
2018-05-06T10:03:27.310Z,18.06
2018-05-06T10:06:33.412Z,18.12
2018-05-06T10:09:38.386Z,18.20
2018-05-06T10:12:43.600Z,18.29
2018-05-06T10:15:49.295Z,18.39
2018-05-06T10:18:55.250Z,18.46
2018-05-06T10:22:00.429Z,18.49
2018-05-06T10:25:05.292Z,18.54
2018-05-06T10:28:10.985Z,18.62
2018-05-06T10:31:18.110Z,18.65
2018-05-06T10:34:25.096Z,18.71
2018-05-06T10:37:31.220Z,18.77
2018-05-06T10:40:36.428Z,18.83
2018-05-06T10:43:41.646Z,18.86
2018-05-06T10:46:47.771Z,18.88
2018-05-06T10:49:53.714Z,18.90
2018-05-06T10:53:00.019Z,18.91
2018-05-06T10:56:05.803Z,18.93
2018-05-06T10:59:11.412Z,18.93
2018-05-06T11:02:17.961Z,18.95
2018-05-06T11:05:24.481Z,18.99
2018-05-06T11:08:30.389Z,18.98
2018-05-06T11:11:35.594Z,18.99
2018-05-06T11:14:41.716Z,19.02
2018-05-06T11:17:47.618Z,19.03
2018-05-06T11:20:54.572Z,19.09
2018-05-06T11:24:00.724Z,19.07
2018-05-06T11:27:06.704Z,19.10
2018-05-06T11:30:12.644Z,19.16
2018-05-06T11:33:17.896Z,19.23
2018-05-06T11:36:23.983Z,19.25
2018-05-06T11:39:30.101Z,19.28
2018-05-06T11:42:35.924Z,19.35
2018-05-06T11:45:42.044Z,19.38
2018-05-06T11:48:48.152Z,19.40
2018-05-06T11:51:53.363Z,19.46
2018-05-06T11:54:58.568Z,19.49
2018-05-06T11:58:03.780Z,19.53
2018-05-06T12:01:09.931Z,19.58
2018-05-06T12:04:16.052Z,19.63
2018-05-06T12:07:21.999Z,19.68
2018-05-06T12:10:29.128Z,19.75
2018-05-06T12:13:36.168Z,19.83
2018-05-06T12:16:43.188Z,19.92
2018-05-06T12:19:49.316Z,19.96
2018-05-06T12:22:55.211Z,20.04
2018-05-06T12:26:00.400Z,20.09
2018-05-06T12:29:05.798Z,20.12
2018-05-06T12:32:11.244Z,20.13
2018-05-06T12:35:16.481Z,20.22
2018-05-06T12:38:22.596Z,20.26
2018-05-06T12:41:27.580Z,20.33
2018-05-06T12:44:32.448Z,20.35
2018-05-06T12:47:38.436Z,20.41
2018-05-06T12:50:44.240Z,20.49
2018-05-06T12:53:50.434Z,20.54
2018-05-06T12:56:55.647Z,20.57
2018-05-06T13:00:00.852Z,20.67
2018-05-06T13:03:06.468Z,20.74
2018-05-06T13:06:12.595Z,20.80
2018-05-06T13:09:18.204Z,20.90
2018-05-06T13:12:23.414Z,20.96
2018-05-06T13:15:28.608Z,21.00
2018-05-06T13:18:33.812Z,21.08
2018-05-06T13:21:40.121Z,21.11
2018-05-06T13:24:46.220Z,21.17
2018-05-06T13:27:51.433Z,21.25
2018-05-06T13:30:56.644Z,21.31
2018-05-06T13:34:01.869Z,21.36
2018-05-06T13:37:07.099Z,21.38
2018-05-06T13:40:12.081Z,21.42
2018-05-06T13:43:17.479Z,21.48
2018-05-06T13:46:23.092Z,21.53
2018-05-06T13:49:29.009Z,21.57
2018-05-06T13:52:35.170Z,21.65
2018-05-06T13:55:41.076Z,21.66
2018-05-06T13:58:46.415Z,21.75
2018-05-06T14:01:52.529Z,21.80
2018-05-06T14:04:58.719Z,21.87
2018-05-06T14:08:04.439Z,21.96
2018-05-06T14:11:09.636Z,22.01
2018-05-06T14:14:14.871Z,22.00
2018-05-06T14:17:20.084Z,22.03
2018-05-06T14:20:25.058Z,22.10
2018-05-06T14:23:30.462Z,22.18
2018-05-06T14:26:36.557Z,22.26
2018-05-06T14:29:42.402Z,22.31
2018-05-06T14:32:47.268Z,22.34
2018-05-06T14:35:52.504Z,22.34
2018-05-06T14:38:57.709Z,22.35
2018-05-06T14:42:02.916Z,22.40
2018-05-06T14:45:08.126Z,22.42
2018-05-06T14:48:15.376Z,22.49
2018-05-06T14:51:21.525Z,22.49
2018-05-06T14:54:26.720Z,22.48
2018-05-06T14:57:31.967Z,22.50
2018-05-06T15:00:38.083Z,22.52
2018-05-06T15:03:43.367Z,22.57
2018-05-06T15:06:48.485Z,22.58
2018-05-06T15:09:53.688Z,22.62
2018-05-06T15:12:59.800Z,22.61
2018-05-06T15:16:04.861Z,22.64
2018-05-06T15:19:10.512Z,22.68
2018-05-06T15:22:15.612Z,22.72
2018-05-06T15:25:21.223Z,22.72
2018-05-06T15:28:26.431Z,22.75
2018-05-06T15:31:32.647Z,22.76
2018-05-06T15:34:38.193Z,22.75
2018-05-06T15:37:44.304Z,22.74
2018-05-06T15:40:50.103Z,22.72
2018-05-06T15:43:55.312Z,22.72
2018-05-06T15:47:00.541Z,22.72
2018-05-06T15:50:05.517Z,22.72
2018-05-06T15:53:10.928Z,22.72
2018-05-06T15:56:17.052Z,22.72
2018-05-06T15:59:22.268Z,22.69
2018-05-06T16:02:58.492Z,22.67
2018-05-06T16:06:04.345Z,22.63
2018-05-06T16:09:09.545Z,22.57
2018-05-06T16:12:14.752Z,22.52
2018-05-06T16:15:21.545Z,22.50
2018-05-06T16:18:27.669Z,22.45
2018-05-06T16:21:34.763Z,22.40
2018-05-06T16:24:40.589Z,22.33
2018-05-06T16:27:46.713Z,22.28
2018-05-06T16:30:52.538Z,22.22
2018-05-06T16:33:57.742Z,22.16
2018-05-06T16:37:04.183Z,22.13
2018-05-06T16:40:09.789Z,22.07
2018-05-06T16:43:15.894Z,22.02
2018-05-06T16:46:21.100Z,21.98
2018-05-06T16:49:28.168Z,21.92
2018-05-06T16:52:35.172Z,21.87
2018-05-06T16:55:41.360Z,21.80
2018-05-06T16:58:46.941Z,21.73
2018-05-06T17:01:53.989Z,21.67
2018-05-06T17:05:01.092Z,21.61
2018-05-06T17:08:07.027Z,21.54
2018-05-06T17:11:12.233Z,21.50
2018-05-06T17:14:17.429Z,21.43
2018-05-06T17:17:23.530Z,21.36
2018-05-06T17:20:29.677Z,21.30
2018-05-06T17:23:34.930Z,21.20
2018-05-06T17:26:39.799Z,21.11
2018-05-06T17:29:45.412Z,20.99
2018-05-06T17:32:51.329Z,20.91
2018-05-06T17:35:58.509Z,20.84
2018-05-06T17:39:03.558Z,20.75
2018-05-06T17:42:09.268Z,20.67
2018-05-06T17:45:14.992Z,20.59
2018-05-06T17:48:20.043Z,20.48
2018-05-06T17:51:26.169Z,20.40
2018-05-06T17:54:32.269Z,20.30
2018-05-06T17:57:38.016Z,20.22
2018-05-06T18:00:43.240Z,20.14
2018-05-06T18:03:48.441Z,20.02
2018-05-06T18:06:53.362Z,19.93
2018-05-06T18:10:00.009Z,19.82
2018-05-06T18:13:06.127Z,19.72
2018-05-06T18:16:11.372Z,19.62
2018-05-06T18:19:16.584Z,19.54
2018-05-06T18:22:22.700Z,19.44
2018-05-06T18:25:29.556Z,19.35
2018-05-06T18:28:35.766Z,19.24
2018-05-06T18:31:41.681Z,19.15
2018-05-06T18:34:47.596Z,19.06
2018-05-06T18:37:53.496Z,18.96
2018-05-06T18:40:59.594Z,18.86
2018-05-06T18:44:05.515Z,18.76
2018-05-06T18:47:11.625Z,18.65
2018-05-06T18:50:18.385Z,18.55
2018-05-06T18:53:24.025Z,18.46
2018-05-06T18:56:29.229Z,18.36
2018-05-06T18:59:34.436Z,18.27
2018-05-06T19:02:39.673Z,18.19
2018-05-06T19:05:45.076Z,18.10
2018-05-06T19:08:50.910Z,18.02
2018-05-06T19:11:57.089Z,17.93
2018-05-06T19:15:03.193Z,17.85
2018-05-06T19:18:10.288Z,17.76
2018-05-06T19:21:16.424Z,17.67
2018-05-06T19:24:22.080Z,17.58
2018-05-06T19:27:27.285Z,17.51
2018-05-06T19:30:32.488Z,17.42
2018-05-06T19:33:38.613Z,17.33
2018-05-06T19:36:44.932Z,17.24
2018-05-06T19:39:50.552Z,17.16
2018-05-06T19:42:56.736Z,17.07
2018-05-06T19:46:02.760Z,16.99
2018-05-06T19:49:07.956Z,16.89
2018-05-06T19:52:14.128Z,16.81
2018-05-06T19:55:20.486Z,16.72
2018-05-06T19:58:26.973Z,16.64
2018-05-06T20:01:32.587Z,16.55
2018-05-06T20:04:37.491Z,16.47
2018-05-06T20:07:44.124Z,16.38
2018-05-06T20:10:49.761Z,16.31
2018-05-06T20:13:56.924Z,16.22
2018-05-06T20:17:03.672Z,16.15
2018-05-06T20:20:10.709Z,16.08
2018-05-06T20:23:16.679Z,15.99
2018-05-06T20:26:21.278Z,15.92
2018-05-06T20:29:26.924Z,15.84
2018-05-06T20:32:32.161Z,15.75
2018-05-06T20:35:38.116Z,15.69
2018-05-06T20:38:43.711Z,15.62
2018-05-06T20:41:49.139Z,15.52
2018-05-06T20:44:54.349Z,15.45
2018-05-06T20:47:59.552Z,15.38
2018-05-06T20:51:04.474Z,15.30
2018-05-06T20:54:09.684Z,15.24
2018-05-06T20:57:15.964Z,15.17
2018-05-06T21:00:21.292Z,15.09
2018-05-06T21:03:26.283Z,15.02
2018-05-06T21:06:32.612Z,14.95
2018-05-06T21:09:38.433Z,14.89
2018-05-06T21:12:44.309Z,14.82
2018-05-06T21:15:50.148Z,14.77
2018-05-06T21:18:55.354Z,14.69
2018-05-06T21:22:01.552Z,14.63
2018-05-06T21:25:08.064Z,14.57
2018-05-06T21:28:12.758Z,14.51
2018-05-06T21:31:18.056Z,14.45
2018-05-06T21:34:23.121Z,14.38
2018-05-06T21:37:28.300Z,14.29
2018-05-06T21:40:33.735Z,14.26
2018-05-06T21:43:38.916Z,14.19
2018-05-06T21:46:44.731Z,14.12
2018-05-06T21:49:51.145Z,14.04
2018-05-06T21:52:56.725Z,13.98
2018-05-06T21:56:03.033Z,13.92
2018-05-06T21:59:08.936Z,13.84
2018-05-06T22:02:16.201Z,13.80
2018-05-06T22:05:21.393Z,13.76
2018-05-06T22:08:27.229Z,13.69
2018-05-06T22:11:32.876Z,13.62
2018-05-06T22:14:38.484Z,13.57
2018-05-06T22:17:43.692Z,13.52
2018-05-06T22:20:49.128Z,13.48
2018-05-06T22:23:54.971Z,13.38
2018-05-06T22:27:01.304Z,13.35
2018-05-06T22:30:06.936Z,13.32
2018-05-06T22:33:12.140Z,13.25
2018-05-06T22:36:17.964Z,13.20
2018-05-06T22:39:23.324Z,13.17
2018-05-06T22:42:29.084Z,13.13
2018-05-06T22:45:34.303Z,13.06
2018-05-06T22:48:40.089Z,13.04
2018-05-06T22:51:45.515Z,12.98
2018-05-06T22:54:50.908Z,12.89
2018-05-06T22:57:56.122Z,12.85
2018-05-06T23:01:03.135Z,12.79
2018-05-06T23:04:10.223Z,12.74
2018-05-06T23:07:16.256Z,12.70
2018-05-06T23:10:23.108Z,12.64
2018-05-06T23:13:29.143Z,12.59
2018-05-06T23:16:34.984Z,12.56
2018-05-06T23:19:41.112Z,12.53
2018-05-06T23:22:46.312Z,12.45
2018-05-06T23:25:52.832Z,12.42
2018-05-06T23:28:59.357Z,12.37
2018-05-06T23:32:05.492Z,12.35
2018-05-06T23:35:10.705Z,12.30
2018-05-06T23:38:16.641Z,12.25
2018-05-06T23:41:22.332Z,12.21
2018-05-06T23:44:30.370Z,12.15
2018-05-06T23:47:36.256Z,12.10
2018-05-06T23:50:41.468Z,12.07
2018-05-06T23:53:47.796Z,12.03
2018-05-06T23:56:53.905Z,11.98
2018-05-06T23:59:59.132Z,11.92
